SEMJY ESTT-ESTT

Flight info

Callsign SEMJY
Flight time 0h 11m
Altitude 2000
Route VFR
Aircraft BR23/L-SFG/C

Departure

Time 2026-04-22 13:15
Airport Vellinge Airfield (ESTT)

Arrival

Time 2026-04-22 13:27
Airport Vellinge Airfield (ESTT)
Time Latitude Longitude Altitude Speed Heading
2026-04-22 13:10 55.39429 13.02392 2 ft 0 kts 117°
2026-04-22 13:13 55.39428 13.02395 2 ft 2 kts 104°
2026-04-22 13:13 55.39434 13.02447 1 ft 6 kts 111°
2026-04-22 13:13 55.39411 13.02495 -1 ft 3 kts 175°
2026-04-22 13:13 55.39381 13.02462 0 ft 23 kts 226°
2026-04-22 13:14 55.39173 13.02239 6 ft 29 kts 210°
2026-04-22 13:14 55.39069 13.02121 5 ft 0 kts 205°
2026-04-22 13:14 55.38982 13.02022 5 ft 44 kts 225°
2026-04-22 13:14 55.38598 13.01670 91 ft 74 kts 217°
2026-04-22 13:15 55.38111 13.01901 241 ft 93 kts 120°
2026-04-22 13:15 55.37798 13.02903 394 ft 97 kts 106°
2026-04-22 13:15 55.37563 13.03922 667 ft 85 kts 101°
2026-04-22 13:15 55.37376 13.05042 705 ft 101 kts 99°
2026-04-22 13:16 55.37202 13.06323 701 ft 110 kts 95°
2026-04-22 13:16 55.37059 13.07641 754 ft 108 kts 92°
2026-04-22 13:16 55.37012 13.08876 939 ft 91 kts 61°
2026-04-22 13:16 55.37384 13.09597 948 ft 79 kts 11°
2026-04-22 13:17 55.37912 13.10128 886 ft 88 kts 16°
2026-04-22 13:17 55.38431 13.10674 900 ft 86 kts 18°
2026-04-22 13:17 55.38978 13.11205 854 ft 86 kts 16°
2026-04-22 13:17 55.39470 13.11687 976 ft 79 kts 19°
2026-04-22 13:18 55.39986 13.12197 885 ft 90 kts 17°
2026-04-22 13:18 55.40540 13.12582 936 ft 79 kts
2026-04-22 13:18 55.41079 13.12771 989 ft 71 kts 358°
2026-04-22 13:18 55.41590 13.12899 971 ft 75 kts 357°
2026-04-22 13:19 55.42109 13.12977 977 ft 78 kts 359°
2026-04-22 13:19 55.42648 13.13099 1012 ft 77 kts 354°
2026-04-22 13:19 55.43124 13.13134 1169 ft 67 kts 349°
2026-04-22 13:19 55.43588 13.13114 1274 ft 64 kts 349°
2026-04-22 13:20 55.44041 13.13160 1297 ft 71 kts 351°
2026-04-22 13:20 55.44525 13.13121 1283 ft 71 kts 345°
2026-04-22 13:20 55.45028 13.12916 1280 ft 74 kts 328°
2026-04-22 13:20 55.45407 13.12290 1266 ft 79 kts 317°
2026-04-22 13:21 55.45756 13.11537 1212 ft 81 kts 309°
2026-04-22 13:21 55.46015 13.10663 1178 ft 78 kts 297°
2026-04-22 13:21 55.46183 13.09718 1127 ft 84 kts 291°
2026-04-22 13:21 55.46281 13.08705 1123 ft 84 kts 288°
2026-04-22 13:22 55.46350 13.07674 1135 ft 84 kts 285°
2026-04-22 13:22 55.46386 13.06609 1123 ft 86 kts 280°
2026-04-22 13:22 55.46368 13.05535 1026 ft 93 kts 276°
2026-04-22 13:22 55.46287 13.04385 1002 ft 96 kts 269°
2026-04-22 13:23 55.46180 13.03242 976 ft 99 kts 265°
2026-04-22 13:23 55.45876 13.02107 1011 ft 102 kts 242°
2026-04-22 13:23 55.45319 13.01237 998 ft 111 kts 224°
2026-04-22 13:23 55.44644 13.00514 947 ft 114 kts 221°
2026-04-22 13:24 55.43943 12.99799 912 ft 116 kts 213°
2026-04-22 13:24 55.43172 12.99229 697 ft 117 kts 208°
2026-04-22 13:24 55.42463 12.98846 508 ft 106 kts 200°
2026-04-22 13:24 55.41765 12.98994 512 ft 98 kts 170°
2026-04-22 13:25 55.41096 12.99489 579 ft 108 kts 152°
2026-04-22 13:25 55.40438 13.00197 608 ft 113 kts 148°
2026-04-22 13:25 55.39856 13.01028 616 ft 105 kts 129°
2026-04-22 13:25 55.39435 13.02069 557 ft 101 kts 117°
2026-04-22 13:26 55.38973 13.02982 500 ft 98 kts 158°
2026-04-22 13:26 55.38372 13.02912 418 ft 85 kts 210°
2026-04-22 13:26 55.37833 13.02574 345 ft 71 kts 235°
2026-04-22 13:26 55.37761 13.01993 362 ft 55 kts 299°
2026-04-22 13:27 55.37944 13.01413 302 ft 46 kts 322°
2026-04-22 13:27 55.38252 13.01412 190 ft 48 kts 357°
2026-04-22 13:27 55.38594 13.01632 106 ft 58 kts 13°
2026-04-22 13:27 55.38913 13.01971 11 ft 42 kts 13°
2026-04-22 13:28 55.39165 13.02228 77 ft 45 kts
2026-04-22 13:28 55.39470 13.02553 240 ft 54 kts 10°
2026-04-22 13:28 55.39789 13.03046 370 ft 72 kts 76°
2026-04-22 13:28 55.39456 13.03507 471 ft 74 kts 209°
2026-04-22 13:29 55.38967 13.03052 558 ft 86 kts 209°
2026-04-22 13:29 55.38390 13.02655 713 ft 84 kts 204°
2026-04-22 13:29 55.37871 13.02133 678 ft 82 kts 245°
2026-04-22 13:29 55.38058 13.01480 416 ft 68 kts 332°
2026-04-22 13:30 55.38525 13.01555 159 ft 72 kts 22°
2026-04-22 13:30 55.38806 13.01855 27 ft 65 kts 25°
2026-04-22 13:30 55.39153 13.02201 58 ft 57 kts 22°
2026-04-22 13:30 55.39687 13.02808 204 ft 78 kts 33°
2026-04-22 13:31 55.39804 13.03355 376 ft 77 kts 105°
2026-04-22 13:31 55.39422 13.03592 505 ft 74 kts 207°
2026-04-22 13:31 55.38921 13.03195 640 ft 82 kts 213°
2026-04-22 13:31 55.38353 13.02769 664 ft 95 kts 208°
2026-04-22 13:32 55.37848 13.02214 619 ft 70 kts 253°
2026-04-22 13:32 55.38034 13.01567 361 ft 66 kts 317°
2026-04-22 13:32 55.38434 13.01462 164 ft 60 kts 14°
2026-04-22 13:32 55.38791 13.01827 38 ft 59 kts 25°
2026-04-22 13:33 55.39078 13.02127 15 ft 38 kts 28°
2026-04-22 13:33 55.39300 13.02362 10 ft 42 kts 24°
2026-04-22 13:33 55.39435 13.02497 7 ft 16 kts 352°
2026-04-22 13:33 55.39442 13.02428 10 ft 5 kts 259°
2026-04-22 13:34 55.39444 13.02390 10 ft 8 kts 268°
2026-04-22 13:34 55.39434 13.02379 10 ft 0 kts 107°